createdAt,value
2019-02-06T00:01:10.718Z,100631.73
2019-02-06T00:03:41.325Z,100636.09
2019-02-06T00:06:11.986Z,100627.75
2019-02-06T00:08:43.718Z,100629.71
2019-02-06T00:11:14.681Z,100638.27
2019-02-06T00:13:45.378Z,100646.70
2019-02-06T00:16:16.158Z,100640.17
2019-02-06T00:18:46.715Z,100651.63
2019-02-06T00:21:20.525Z,100648.53
2019-02-06T00:23:49.818Z,100650.54
2019-02-06T00:26:20.443Z,100644.69
2019-02-06T00:28:51.026Z,100646.69
2019-02-06T00:31:21.655Z,100652.12
2019-02-06T00:33:52.213Z,100645.74
2019-02-06T00:36:22.681Z,100651.18
2019-02-06T00:38:53.496Z,100652.81
2019-02-06T00:41:24.096Z,100652.45
2019-02-06T00:43:55.190Z,100653.73
2019-02-06T00:46:25.901Z,100647.39
2019-02-06T00:48:56.452Z,100648.83
2019-02-06T00:51:26.951Z,100651.77
2019-02-06T00:53:57.410Z,100655.95
2019-02-06T00:56:28.044Z,100652.14
2019-02-06T00:58:58.658Z,100657.93
2019-02-06T01:01:29.256Z,100664.71
2019-02-06T01:03:59.864Z,100668.89
2019-02-06T01:06:31.020Z,100669.64
2019-02-06T01:09:01.598Z,100669.64
2019-02-06T01:11:32.457Z,100663.64
2019-02-06T01:14:02.909Z,100667.45
2019-02-06T01:16:33.572Z,100672.71
2019-02-06T01:19:04.321Z,100674.72
2019-02-06T01:21:34.876Z,100675.25
2019-02-06T01:24:06.015Z,100672.17
2019-02-06T01:26:36.604Z,100664.30
2019-02-06T01:29:07.140Z,100663.58
2019-02-06T01:31:37.763Z,100664.27
2019-02-06T01:34:08.643Z,100674.12
2019-02-06T01:36:39.481Z,100667.56
2019-02-06T01:39:13.127Z,100668.65
2019-02-06T01:41:43.701Z,100673.73
2019-02-06T01:44:14.282Z,100673.75
2019-02-06T01:46:44.838Z,100669.75
2019-02-06T01:49:15.457Z,100666.47
2019-02-06T01:51:46.079Z,100663.00
2019-02-06T01:54:16.696Z,100658.11
2019-02-06T01:56:47.181Z,100657.54
2019-02-06T01:59:17.767Z,100650.23
2019-02-06T02:01:48.602Z,100654.24
2019-02-06T02:04:19.471Z,100660.83
2019-02-06T02:06:50.209Z,100661.53
2019-02-06T02:09:21.171Z,100670.27
2019-02-06T02:11:51.825Z,100661.00
2019-02-06T02:14:22.246Z,100662.45
2019-02-06T02:16:52.855Z,100657.87
2019-02-06T02:19:23.980Z,100659.34
2019-02-06T02:21:54.499Z,100651.70
2019-02-06T02:24:25.016Z,100658.06
2019-02-06T02:26:55.689Z,100650.80
2019-02-06T02:29:26.565Z,100660.47
2019-02-06T02:31:57.325Z,100660.67
2019-02-06T02:34:28.011Z,100661.72
2019-02-06T02:36:58.775Z,100660.61
2019-02-06T02:39:29.313Z,100666.48
2019-02-06T02:42:00.249Z,100660.11
2019-02-06T02:44:30.838Z,100663.41
2019-02-06T02:47:01.389Z,100666.13
2019-02-06T02:49:31.835Z,100664.70
2019-02-06T02:52:02.555Z,100668.34
2019-02-06T02:54:33.105Z,100662.31
2019-02-06T02:57:03.880Z,100659.19
2019-02-06T02:59:34.420Z,100662.47
2019-02-06T03:02:24.016Z,100663.75
2019-02-06T03:05:01.138Z,100672.15
2019-02-06T03:07:31.670Z,100661.73
2019-02-06T03:10:02.309Z,100677.58
2019-02-06T03:12:32.793Z,100669.93
2019-02-06T03:15:03.521Z,100675.20
2019-02-06T03:17:34.021Z,100675.56
2019-02-06T03:20:05.655Z,100661.55
2019-02-06T03:22:36.773Z,100673.40
2019-02-06T03:25:09.126Z,100673.73
2019-02-06T03:27:39.764Z,100675.55
2019-02-06T03:30:13.771Z,100675.02
2019-02-06T03:32:44.421Z,100676.12
2019-02-06T03:35:15.383Z,100674.11
2019-02-06T03:37:46.088Z,100675.55
2019-02-06T03:40:17.118Z,100676.49
2019-02-06T03:42:47.704Z,100676.83
2019-02-06T03:45:18.641Z,100674.28
2019-02-06T03:47:49.329Z,100682.69
2019-02-06T03:50:20.947Z,100680.84
2019-02-06T03:52:51.647Z,100675.76
2019-02-06T03:55:22.353Z,100678.70
2019-02-06T03:57:52.927Z,100677.05
2019-02-06T04:00:23.659Z,100673.97
2019-02-06T04:02:54.151Z,100667.25
2019-02-06T04:05:24.959Z,100679.81
2019-02-06T04:07:55.601Z,100677.44
2019-02-06T04:10:26.162Z,100674.88
2019-02-06T04:12:57.117Z,100676.50
2019-02-06T04:15:27.815Z,100674.86
2019-02-06T04:17:58.358Z,100675.58
2019-02-06T04:20:28.862Z,100670.69
2019-02-06T04:22:59.402Z,100675.44
2019-02-06T04:25:29.936Z,100679.07
2019-02-06T04:28:00.506Z,100689.08
2019-02-06T04:30:31.100Z,100688.52
2019-02-06T04:33:01.672Z,100689.78
2019-02-06T04:35:32.170Z,100685.95
2019-02-06T04:38:02.738Z,100691.79
2019-02-06T04:40:33.537Z,100691.42
2019-02-06T04:43:04.074Z,100690.84
2019-02-06T04:45:34.805Z,100695.77
2019-02-06T04:48:05.606Z,100695.95
2019-02-06T04:50:36.385Z,100696.88
2019-02-06T04:53:07.031Z,100691.23
2019-02-06T04:55:37.569Z,100692.11
2019-02-06T04:58:08.181Z,100697.02
2019-02-06T05:00:38.798Z,100697.19
2019-02-06T05:03:09.527Z,100692.28
2019-02-06T05:05:40.092Z,100700.31
2019-02-06T05:08:10.939Z,100699.39
2019-02-06T05:10:41.563Z,100704.48
2019-02-06T05:13:12.121Z,100701.22
2019-02-06T05:15:42.712Z,100707.40
2019-02-06T05:18:13.277Z,100699.23
2019-02-06T05:20:43.914Z,100709.25
2019-02-06T05:23:14.589Z,100701.97
2019-02-06T05:25:45.143Z,100707.62
2019-02-06T05:28:17.987Z,100707.44
2019-02-06T05:30:47.920Z,100713.62
2019-02-06T05:33:18.511Z,100709.62
2019-02-06T05:35:49.494Z,100712.91
2019-02-06T05:38:20.030Z,100711.25
2019-02-06T05:40:50.566Z,100709.27
2019-02-06T05:43:21.110Z,100714.72
2019-02-06T05:45:51.553Z,100719.48
2019-02-06T05:48:22.128Z,100717.28
2019-02-06T05:50:53.645Z,100720.17
2019-02-06T05:53:23.979Z,100724.55
2019-02-06T05:55:55.047Z,100730.73
2019-02-06T05:58:25.742Z,100723.82
2019-02-06T06:00:56.428Z,100733.49
2019-02-06T06:03:27.291Z,100727.66
2019-02-06T06:05:57.971Z,100735.47
2019-02-06T06:08:28.591Z,100738.93
2019-02-06T06:10:59.075Z,100734.01
2019-02-06T06:13:29.719Z,100739.45
2019-02-06T06:16:00.355Z,100736.74
2019-02-06T06:18:32.046Z,100746.75
2019-02-06T06:21:02.683Z,100746.56
2019-02-06T06:23:33.460Z,100750.55
2019-02-06T06:26:04.144Z,100752.19
2019-02-06T06:28:34.731Z,100757.67
2019-02-06T06:31:05.459Z,100761.86
2019-02-06T06:33:36.412Z,100766.59
2019-02-06T06:36:07.573Z,100765.85
2019-02-06T06:38:38.107Z,100768.03
2019-02-06T06:41:08.701Z,100774.05
2019-02-06T06:43:39.220Z,100771.85
2019-02-06T06:46:09.659Z,100779.85
2019-02-06T06:48:40.139Z,100780.20
2019-02-06T06:51:10.607Z,100778.58
2019-02-06T06:53:41.209Z,100781.69
2019-02-06T06:56:12.063Z,100779.48
2019-02-06T06:58:42.910Z,100780.58
2019-02-06T07:01:13.815Z,100783.65
2019-02-06T07:03:44.798Z,100789.27
2019-02-06T07:06:15.486Z,100785.81
2019-02-06T07:08:46.018Z,100794.56
2019-02-06T07:11:16.627Z,100790.34
2019-02-06T07:13:47.230Z,100780.31
2019-02-06T07:16:17.984Z,100787.41
2019-02-06T07:18:48.403Z,100791.75
2019-02-06T07:21:19.084Z,100785.80
2019-02-06T07:23:49.546Z,100789.93
2019-02-06T07:26:20.111Z,100794.08
2019-02-06T07:28:50.802Z,100803.32
2019-02-06T07:31:21.434Z,100795.27
2019-02-06T07:33:52.301Z,100800.52
2019-02-06T07:36:22.887Z,100796.66
2019-02-06T07:38:53.466Z,100796.45
2019-02-06T07:41:23.985Z,100791.48
2019-02-06T07:43:54.926Z,100788.33
2019-02-06T07:46:25.394Z,100789.98
2019-02-06T07:48:55.784Z,100792.84
2019-02-06T07:51:26.388Z,100792.83
2019-02-06T07:53:56.862Z,100795.33
2019-02-06T07:56:27.546Z,100801.98
2019-02-06T07:58:58.180Z,100802.14
2019-02-06T08:01:28.772Z,100798.53
2019-02-06T08:03:59.214Z,100800.13
2019-02-06T08:06:29.917Z,100801.52
2019-02-06T08:09:00.587Z,100806.18
2019-02-06T08:11:31.212Z,100798.13
2019-02-06T08:14:01.811Z,100799.33
2019-02-06T08:16:32.289Z,100803.98
2019-02-06T08:19:03.509Z,100800.21
2019-02-06T08:21:34.076Z,100799.95
2019-02-06T08:24:05.380Z,100797.45
2019-02-06T08:26:35.941Z,100802.47
2019-02-06T08:29:06.621Z,100802.95
2019-02-06T08:31:37.264Z,100801.47
2019-02-06T08:34:07.735Z,100798.44
2019-02-06T08:36:38.380Z,100798.88
2019-02-06T08:39:10.508Z,100796.87
2019-02-06T08:41:40.917Z,100797.66
2019-02-06T08:44:11.431Z,100801.20
2019-02-06T08:46:42.153Z,100804.82
2019-02-06T08:49:12.800Z,100804.97
2019-02-06T08:51:43.546Z,100806.20
2019-02-06T08:54:14.105Z,100809.02
2019-02-06T08:56:44.824Z,100802.22
2019-02-06T08:59:15.502Z,100809.53
2019-02-06T09:01:46.052Z,100803.25
2019-02-06T09:04:16.588Z,100803.38
2019-02-06T09:06:47.766Z,100811.09
2019-02-06T09:09:18.382Z,100808.82
2019-02-06T09:11:48.959Z,100802.88
2019-02-06T09:14:19.892Z,100802.52
2019-02-06T09:16:50.493Z,100799.09
2019-02-06T09:19:21.193Z,100795.05
2019-02-06T09:21:51.848Z,100792.42
2019-02-06T09:24:22.317Z,100783.88
2019-02-06T09:26:52.960Z,100783.46
2019-02-06T09:29:23.609Z,100782.17
2019-02-06T09:31:54.565Z,100776.75
2019-02-06T09:34:25.224Z,100777.06
2019-02-06T09:36:55.904Z,100776.11
2019-02-06T09:39:26.357Z,100778.78
2019-02-06T09:41:56.999Z,100777.56
2019-02-06T09:44:27.678Z,100778.12
2019-02-06T09:46:58.498Z,100780.41
2019-02-06T09:49:29.061Z,100778.99
2019-02-06T09:51:59.892Z,100774.95
2019-02-06T09:54:30.412Z,100772.87
2019-02-06T09:57:01.086Z,100775.33
2019-02-06T09:59:31.679Z,100778.62
2019-02-06T10:02:02.314Z,100781.92
2019-02-06T10:04:32.971Z,100776.43
2019-02-06T10:07:03.472Z,100776.09
2019-02-06T10:09:33.930Z,100766.77
2019-02-06T10:12:04.426Z,100767.45
2019-02-06T10:14:35.230Z,100773.59
2019-02-06T10:17:05.821Z,100760.47
2019-02-06T10:19:36.340Z,100760.84
2019-02-06T10:22:07.003Z,100756.98
2019-02-06T10:24:37.978Z,100753.56
2019-02-06T10:27:08.623Z,100751.09
2019-02-06T10:29:39.221Z,100739.08
2019-02-06T10:32:09.984Z,100734.61
2019-02-06T10:34:40.564Z,100732.81
2019-02-06T10:37:11.211Z,100724.91
2019-02-06T10:39:41.636Z,100718.56
2019-02-06T10:42:12.406Z,100716.05
2019-02-06T10:44:43.146Z,100710.20
2019-02-06T10:47:13.757Z,100706.41
2019-02-06T10:49:44.352Z,100710.00
2019-02-06T10:52:14.817Z,100705.33
2019-02-06T10:54:45.403Z,100705.88
2019-02-06T10:57:16.076Z,100699.92
2019-02-06T10:59:46.536Z,100703.27
2019-02-06T11:02:17.160Z,100701.45
2019-02-06T11:04:48.607Z,100691.24
2019-02-06T11:07:19.085Z,100690.84
2019-02-06T11:09:49.947Z,100696.70
2019-02-06T11:12:20.485Z,100694.22
2019-02-06T11:14:51.366Z,100700.10
2019-02-06T11:17:21.855Z,100688.12
2019-02-06T11:19:52.694Z,100690.48
2019-02-06T11:22:23.190Z,100692.62
2019-02-06T11:24:53.829Z,100684.87
2019-02-06T11:27:24.470Z,100690.16
2019-02-06T11:29:55.165Z,100685.98
2019-02-06T11:32:25.690Z,100686.66
2019-02-06T11:34:56.217Z,100691.44
2019-02-06T11:37:27.087Z,100676.23
2019-02-06T11:39:58.477Z,100680.63
2019-02-06T11:42:29.053Z,100686.05
2019-02-06T11:44:59.633Z,100681.50
2019-02-06T11:47:30.218Z,100671.88
2019-02-06T11:50:02.217Z,100682.77
2019-02-06T11:52:32.748Z,100683.57
2019-02-06T11:55:03.293Z,100681.35
2019-02-06T11:57:33.910Z,100677.66
2019-02-06T12:00:04.903Z,100672.58
2019-02-06T12:02:37.282Z,100669.85
2019-02-06T12:05:08.784Z,100653.39
2019-02-06T12:07:39.342Z,100652.87
2019-02-06T12:10:14.440Z,100645.61
2019-02-06T12:12:44.984Z,100641.00
2019-02-06T12:15:18.297Z,100639.03
2019-02-06T12:17:48.929Z,100638.41
2019-02-06T12:20:21.316Z,100638.42
2019-02-06T12:22:52.006Z,100618.92
2019-02-06T12:25:22.615Z,100614.52
2019-02-06T12:27:53.359Z,100614.36
2019-02-06T12:30:28.513Z,100605.25
2019-02-06T12:32:59.104Z,100607.17
2019-02-06T12:35:29.705Z,100594.45
2019-02-06T12:38:00.321Z,100592.06
2019-02-06T12:40:30.968Z,100590.73
2019-02-06T12:43:01.531Z,100585.26
2019-02-06T12:45:32.209Z,100578.94
2019-02-06T12:48:02.846Z,100577.97
2019-02-06T12:50:33.429Z,100567.25
2019-02-06T12:53:03.983Z,100557.12
2019-02-06T12:55:36.637Z,100559.36
2019-02-06T12:58:08.836Z,100558.39
2019-02-06T13:00:41.646Z,100552.06
2019-02-06T13:03:12.395Z,100567.31
2019-02-06T13:05:43.829Z,100562.22
2019-02-06T13:08:17.219Z,100573.59
2019-02-06T13:10:46.793Z,100559.91
2019-02-06T13:13:17.676Z,100562.31
2019-02-06T13:15:48.402Z,100566.98
2019-02-06T13:18:18.850Z,100568.53
2019-02-06T13:20:51.423Z,100562.34
2019-02-06T13:23:22.380Z,100568.27
2019-02-06T13:25:53.089Z,100566.67
2019-02-06T13:28:23.675Z,100557.83
2019-02-06T13:30:54.177Z,100559.21
2019-02-06T13:33:24.602Z,100559.37
2019-02-06T13:35:55.232Z,100552.92
2019-02-06T13:38:25.926Z,100556.03
2019-02-06T13:40:56.864Z,100543.97
2019-02-06T13:43:27.448Z,100538.21
2019-02-06T13:46:04.514Z,100539.34
2019-02-06T13:48:35.057Z,100535.42
2019-02-06T13:51:16.535Z,100533.52
2019-02-06T13:53:42.452Z,100528.90
2019-02-06T13:56:13.296Z,100523.45
2019-02-06T13:58:43.866Z,100524.25
2019-02-06T14:01:25.442Z,100521.14
2019-02-06T14:03:47.093Z,100512.27
2019-02-06T14:06:17.787Z,100510.38
2019-02-06T14:08:48.351Z,100510.83
2019-02-06T14:11:19.469Z,100505.85
2019-02-06T14:13:53.623Z,100506.81
2019-02-06T14:16:26.998Z,100497.24
2019-02-06T14:18:56.447Z,100496.23
2019-02-06T14:21:27.374Z,100494.02
2019-02-06T14:24:23.101Z,100492.65
2019-02-06T14:27:11.734Z,100496.41
2019-02-06T14:30:40.118Z,100482.13
2019-02-06T14:33:57.935Z,100479.41
2019-02-06T14:37:14.711Z,100480.85
2019-02-06T14:40:10.006Z,100485.84
2019-02-06T14:43:40.676Z,100478.48
2019-02-06T14:46:50.983Z,100464.61
2019-02-06T14:50:02.424Z,100469.58
2019-02-06T14:53:23.878Z,100469.29
2019-02-06T14:56:20.787Z,100468.44
2019-02-06T14:59:49.204Z,100462.23
2019-02-06T15:03:08.310Z,100466.61
2019-02-06T15:06:34.915Z,100455.59
2019-02-06T15:09:51.808Z,100460.37
2019-02-06T15:13:19.205Z,100456.48
2019-02-06T15:16:27.016Z,100459.22
2019-02-06T15:19:36.566Z,100455.66
2019-02-06T15:22:50.429Z,100452.74
2019-02-06T15:25:50.351Z,100450.03
2019-02-06T15:29:10.860Z,100449.39
2019-02-06T15:32:25.198Z,100449.62
2019-02-06T15:35:45.060Z,100442.62
2019-02-06T15:39:12.948Z,100431.08
2019-02-06T15:42:43.367Z,100431.02
2019-02-06T15:45:48.559Z,100422.55
2019-02-06T15:48:52.191Z,100419.52
2019-02-06T15:52:05.131Z,100415.89
2019-02-06T15:55:08.933Z,100412.88
2019-02-06T15:58:20.914Z,100410.76
2019-02-06T16:01:25.205Z,100405.84
2019-02-06T16:04:45.825Z,100405.73
2019-02-06T16:08:02.609Z,100405.05
2019-02-06T16:11:41.666Z,100398.69
2019-02-06T16:14:39.911Z,100396.59
2019-02-06T16:18:00.663Z,100392.78
2019-02-06T16:21:12.736Z,100382.30
2019-02-06T16:24:32.552Z,100384.70
2019-02-06T16:27:54.599Z,100374.19
2019-02-06T16:31:04.627Z,100373.50
2019-02-06T16:34:32.081Z,100375.69
2019-02-06T16:38:00.128Z,100374.59
2019-02-06T16:40:58.698Z,100373.51
2019-02-06T16:44:31.168Z,100370.30
2019-02-06T16:47:45.276Z,100369.38
2019-02-06T16:50:30.272Z,100364.12
2019-02-06T16:53:58.262Z,100363.38
2019-02-06T16:57:26.277Z,100355.59
2019-02-06T17:00:54.225Z,100363.22
2019-02-06T17:03:56.280Z,100361.79
2019-02-06T17:06:58.811Z,100361.44
2019-02-06T17:10:28.069Z,100355.84
2019-02-06T17:13:56.056Z,100362.73
2019-02-06T17:17:15.647Z,100350.78
2019-02-06T17:20:43.594Z,100355.45
2019-02-06T17:24:02.617Z,100346.95
2019-02-06T17:27:22.308Z,100337.17
2019-02-06T17:30:40.885Z,100334.66
2019-02-06T17:34:11.109Z,100328.15
2019-02-06T17:37:14.302Z,100333.77
2019-02-06T17:40:34.466Z,100332.89
2019-02-06T17:43:40.561Z,100328.52
2019-02-06T17:46:53.995Z,100320.89
2019-02-06T17:50:18.640Z,100329.06
2019-02-06T17:53:32.630Z,100334.50
2019-02-06T17:56:06.770Z,100328.50
2019-02-06T17:58:42.366Z,100327.05
2019-02-06T18:01:52.429Z,100322.73
2019-02-06T18:04:31.777Z,100326.71
2019-02-06T18:07:06.781Z,100316.89
2019-02-06T18:09:41.404Z,100312.16
2019-02-06T18:12:13.687Z,100312.34
2019-02-06T18:14:45.501Z,100318.53
2019-02-06T18:17:25.969Z,100322.34
2019-02-06T18:20:07.541Z,100322.38
2019-02-06T18:22:42.902Z,100321.47
2019-02-06T18:25:14.130Z,100312.41
2019-02-06T18:27:48.421Z,100312.94
2019-02-06T18:30:25.441Z,100308.25
2019-02-06T18:33:01.641Z,100308.42
2019-02-06T18:35:32.797Z,100305.50
2019-02-06T18:38:07.615Z,100306.59
2019-02-06T18:40:40.640Z,100305.50
2019-02-06T18:43:14.600Z,100307.34
2019-02-06T18:45:51.351Z,100306.59
2019-02-06T18:48:26.674Z,100301.17
2019-02-06T18:51:01.538Z,100298.44
2019-02-06T18:53:33.391Z,100294.10
2019-02-06T18:56:12.205Z,100282.69
2019-02-06T18:58:44.078Z,100290.64
2019-02-06T19:01:17.811Z,100277.22
2019-02-06T19:03:52.376Z,100275.94
2019-02-06T19:06:27.075Z,100276.68
2019-02-06T19:08:59.391Z,100273.95
2019-02-06T19:11:33.263Z,100267.62
2019-02-06T19:14:06.617Z,100267.97
2019-02-06T19:16:40.762Z,100265.09
2019-02-06T19:19:12.768Z,100260.38
2019-02-06T19:21:43.500Z,100252.23
2019-02-06T19:24:18.776Z,100249.88
2019-02-06T19:26:55.597Z,100246.80
2019-02-06T19:29:29.062Z,100256.02
2019-02-06T19:32:02.605Z,100246.39
2019-02-06T19:34:33.247Z,100242.76
2019-02-06T19:37:04.860Z,100246.55
2019-02-06T19:39:39.595Z,100253.45
2019-02-06T19:42:22.012Z,100245.09
2019-02-06T19:44:54.021Z,100247.10
2019-02-06T19:47:30.805Z,100244.03
2019-02-06T19:50:01.627Z,100235.34
2019-02-06T19:52:35.881Z,100229.00
2019-02-06T19:55:08.426Z,100232.42
2019-02-06T19:57:40.381Z,100233.16
2019-02-06T20:00:21.547Z,100222.12
2019-02-06T20:02:54.109Z,100224.66
2019-02-06T20:05:26.071Z,100217.05
2019-02-06T20:08:06.928Z,100220.86
2019-02-06T20:10:45.097Z,100225.22
2019-02-06T20:13:19.488Z,100221.77
2019-02-06T20:15:53.827Z,100212.73
2019-02-06T20:18:24.374Z,100215.77
2019-02-06T20:20:57.496Z,100212.88
2019-02-06T20:23:31.241Z,100216.84
2019-02-06T20:26:08.606Z,100219.55
2019-02-06T20:28:45.226Z,100215.05
2019-02-06T20:31:19.068Z,100216.83
2019-02-06T20:33:56.640Z,100204.00
2019-02-06T20:36:36.254Z,100199.12
2019-02-06T20:39:16.187Z,100197.47
2019-02-06T20:41:46.882Z,100193.84
2019-02-06T20:44:17.623Z,100186.23
2019-02-06T20:46:58.118Z,100183.17
2019-02-06T20:49:37.708Z,100183.68
2019-02-06T20:52:11.524Z,100195.78
2019-02-06T20:54:46.998Z,100187.59
2019-02-06T20:57:17.960Z,100188.32
2019-02-06T20:59:48.626Z,100192.28
2019-02-06T21:02:23.369Z,100184.14
2019-02-06T21:04:55.199Z,100176.55
2019-02-06T21:07:30.733Z,100179.78
2019-02-06T21:10:04.078Z,100174.72
2019-02-06T21:12:38.129Z,100166.77
2019-02-06T21:15:09.460Z,100170.03
2019-02-06T21:17:42.404Z,100166.57
2019-02-06T21:20:17.353Z,100164.03
2019-02-06T21:23:04.643Z,100162.77
2019-02-06T21:25:35.473Z,100159.14
2019-02-06T21:28:13.870Z,100160.08
2019-02-06T21:30:48.903Z,100155.93
2019-02-06T21:33:24.689Z,100150.13
2019-02-06T21:35:59.126Z,100147.59
2019-02-06T21:38:33.935Z,100142.36
2019-02-06T21:41:05.936Z,100144.89
2019-02-06T21:43:44.179Z,100137.11
2019-02-06T21:46:14.062Z,100131.87
2019-02-06T21:48:46.863Z,100131.31
2019-02-06T21:51:21.092Z,100133.14
2019-02-06T21:53:52.253Z,100125.53
2019-02-06T21:56:23.152Z,100133.13
2019-02-06T21:58:53.888Z,100133.48
2019-02-06T22:01:24.471Z,100124.27
2019-02-06T22:03:54.976Z,100123.36
2019-02-06T22:06:25.599Z,100123.00
2019-02-06T22:08:56.318Z,100116.28
2019-02-06T22:11:27.115Z,100113.94
2019-02-06T22:13:57.574Z,100112.50
2019-02-06T22:16:28.184Z,100116.86
2019-02-06T22:18:58.783Z,100112.31
2019-02-06T22:21:29.296Z,100108.17
2019-02-06T22:24:00.074Z,100108.88
2019-02-06T22:26:30.767Z,100100.39
2019-02-06T22:29:01.344Z,100100.22
2019-02-06T22:31:31.873Z,100101.48
2019-02-06T22:34:02.484Z,100098.94
2019-02-06T22:36:33.603Z,100110.51
2019-02-06T22:39:06.258Z,100105.27
2019-02-06T22:41:36.903Z,100095.47
2019-02-06T22:44:07.413Z,100100.34
2019-02-06T22:46:38.010Z,100097.64
2019-02-06T22:49:08.629Z,100097.08
2019-02-06T22:51:39.273Z,100094.02
2019-02-06T22:54:09.996Z,100087.33
2019-02-06T22:56:41.229Z,100084.58
2019-02-06T22:59:12.151Z,100084.40
2019-02-06T23:01:51.548Z,100079.34
2019-02-06T23:04:22.073Z,100074.09
2019-02-06T23:06:52.916Z,100070.30
2019-02-06T23:09:23.630Z,100066.50
2019-02-06T23:11:55.808Z,100063.27
2019-02-06T23:14:26.941Z,100050.07
2019-02-06T23:16:57.759Z,100058.02
2019-02-06T23:19:28.540Z,100047.55
2019-02-06T23:21:59.082Z,100039.79
2019-02-06T23:24:29.837Z,100044.66
2019-02-06T23:27:00.539Z,100049.19
2019-02-06T23:29:31.310Z,100049.69
2019-02-06T23:32:02.109Z,100047.88
2019-02-06T23:34:32.700Z,100039.55
2019-02-06T23:37:03.221Z,100045.30
2019-02-06T23:39:34.259Z,100042.76
2019-02-06T23:42:06.222Z,100036.42
2019-02-06T23:44:36.773Z,100036.58
2019-02-06T23:47:07.485Z,100025.56
2019-02-06T23:49:38.110Z,100030.97
2019-02-06T23:52:08.822Z,100026.09
2019-02-06T23:54:40.160Z,100020.84
2019-02-06T23:57:10.868Z,100009.52
2019-02-06T23:59:41.566Z,100005.38
